createdAt,value
2023-04-21T00:02:50.109Z,5.50
2023-04-21T00:07:14.819Z,5.40
2023-04-21T00:11:37.331Z,5.30
2023-04-21T00:15:59.237Z,5.30
2023-04-21T00:20:21.133Z,5.20
2023-04-21T00:24:43.057Z,5.20
2023-04-21T00:29:04.916Z,5.10
2023-04-21T00:33:27.017Z,5.10
2023-04-21T00:37:51.083Z,5.00
2023-04-21T00:42:17.354Z,5.00
2023-04-21T00:46:39.690Z,4.90
2023-04-21T00:51:02.298Z,4.80
2023-04-21T00:55:25.551Z,4.70
2023-04-21T00:59:47.631Z,4.60
2023-04-21T01:04:10.655Z,4.50
2023-04-21T01:08:33.295Z,4.60
2023-04-21T01:12:55.621Z,4.70
2023-04-21T01:17:19.112Z,4.70
2023-04-21T01:21:43.361Z,4.70
2023-04-21T01:26:06.574Z,4.80
2023-04-21T01:30:31.655Z,5.00
2023-04-21T01:34:55.877Z,5.00
2023-04-21T01:39:17.984Z,5.00
2023-04-21T01:43:40.474Z,5.00
2023-04-21T01:48:03.285Z,4.90
2023-04-21T01:52:25.398Z,5.00
2023-04-21T01:56:49.454Z,5.10
2023-04-21T02:01:12.379Z,5.20
2023-04-21T02:05:34.773Z,5.40
2023-04-21T02:09:56.964Z,5.50
2023-04-21T02:14:19.048Z,5.50
2023-04-21T02:18:41.805Z,5.60
2023-04-21T02:23:03.858Z,5.60
2023-04-21T02:27:26.018Z,5.60
2023-04-21T02:31:59.317Z,5.60
2023-04-21T02:36:26.466Z,5.60
2023-04-21T02:40:52.437Z,5.60
2023-04-21T02:45:14.647Z,5.60
2023-04-21T02:49:42.361Z,5.60
2023-04-21T02:54:04.689Z,5.70
2023-04-21T02:58:26.762Z,5.70
2023-04-21T03:02:49.285Z,5.70
2023-04-21T03:07:14.986Z,5.70
2023-04-21T03:11:37.336Z,5.80
2023-04-21T03:15:59.367Z,5.90
2023-04-21T03:20:21.903Z,6.00
2023-04-21T03:24:43.905Z,6.10
2023-04-21T03:29:06.445Z,6.10
2023-04-21T03:33:28.549Z,6.00
2023-04-21T03:37:50.669Z,5.90
2023-04-21T03:42:12.826Z,5.80
2023-04-21T03:46:35.029Z,5.70
2023-04-21T03:50:56.887Z,5.80
2023-04-21T03:55:19.372Z,5.80
2023-04-21T03:59:41.867Z,5.80
2023-04-21T04:04:04.228Z,5.80
2023-04-21T04:08:26.530Z,5.80
2023-04-21T04:12:48.833Z,5.80
2023-04-21T04:17:13.116Z,5.90
2023-04-21T04:21:35.450Z,6.00
2023-04-21T04:26:01.898Z,6.20
2023-04-21T04:30:27.048Z,6.80
2023-04-21T04:34:49.102Z,7.50
2023-04-21T04:39:12.509Z,8.00
2023-04-21T04:43:36.999Z,8.40
2023-04-21T04:47:59.482Z,9.50
2023-04-21T04:52:21.745Z,11.30
2023-04-21T04:56:43.704Z,13.00
2023-04-21T05:01:16.799Z,14.60
2023-04-21T05:05:38.895Z,15.80
2023-04-21T05:10:02.606Z,17.00
2023-04-21T05:14:24.481Z,18.50
2023-04-21T05:18:46.262Z,20.20
2023-04-21T05:23:08.913Z,22.20
2023-04-21T05:27:31.633Z,23.90
2023-04-21T05:31:53.895Z,23.60
2023-04-21T05:36:15.807Z,22.90
2023-04-21T05:40:37.931Z,22.60
2023-04-21T05:44:59.978Z,24.10
2023-04-21T05:49:22.006Z,25.50
2023-04-21T05:53:45.950Z,26.90
2023-04-21T05:58:07.717Z,27.90
2023-04-21T06:02:29.842Z,29.40
2023-04-21T06:06:52.008Z,30.90
2023-04-21T06:11:14.237Z,31.60
2023-04-21T06:15:36.473Z,30.90
2023-04-21T06:19:58.542Z,30.00
2023-04-21T06:24:25.663Z,30.30
2023-04-21T06:28:48.183Z,30.50
2023-04-21T06:33:10.619Z,31.40
2023-04-21T06:37:33.064Z,32.10
2023-04-21T06:41:55.321Z,33.00
2023-04-21T06:46:18.531Z,33.00
2023-04-21T06:50:41.181Z,32.40
2023-04-21T06:55:03.504Z,32.30
2023-04-21T06:59:25.749Z,32.50
2023-04-21T07:03:47.969Z,33.30
2023-04-21T07:08:09.945Z,34.70
2023-04-21T07:12:31.905Z,33.70
2023-04-21T07:16:55.216Z,34.40
2023-04-21T07:21:17.472Z,32.20
2023-04-21T07:25:39.346Z,32.90
2023-04-21T07:30:01.195Z,31.40
2023-04-21T07:34:23.306Z,29.10
2023-04-21T07:38:45.607Z,28.10
2023-04-21T07:43:07.533Z,28.70
2023-04-21T07:47:30.146Z,29.20
2023-04-21T07:51:52.255Z,27.90
2023-04-21T07:56:14.364Z,27.40
2023-04-21T08:00:37.809Z,25.30
2023-04-21T08:04:59.917Z,24.70
2023-04-21T08:09:22.098Z,25.30
2023-04-21T08:13:44.068Z,25.40
2023-04-21T08:18:06.537Z,27.00
2023-04-21T08:22:28.883Z,27.20
2023-04-21T08:26:51.054Z,26.60
2023-04-21T08:31:13.330Z,27.10
2023-04-21T08:35:36.248Z,28.20
2023-04-21T08:39:58.447Z,27.00
2023-04-21T08:44:21.897Z,28.70
2023-04-21T08:48:43.983Z,28.40
2023-04-21T08:53:06.548Z,27.30
2023-04-21T08:57:28.763Z,26.30
2023-04-21T09:02:17.519Z,26.50
2023-04-21T09:06:46.537Z,26.70
2023-04-21T09:11:08.848Z,26.50
2023-04-21T09:15:38.218Z,27.40
2023-04-21T09:20:16.961Z,28.30
2023-04-21T09:24:47.286Z,26.00
2023-04-21T09:29:09.838Z,25.50
2023-04-21T09:33:45.652Z,25.30
2023-04-21T09:38:17.046Z,23.80
2023-04-21T09:42:39.779Z,24.40
2023-04-21T09:47:03.886Z,25.20
2023-04-21T09:51:48.535Z,22.80
2023-04-21T09:56:16.048Z,22.00
2023-04-21T10:00:40.091Z,22.60
2023-04-21T10:05:03.160Z,21.40
2023-04-21T10:09:33.694Z,20.60
2023-04-21T10:13:56.148Z,20.70
2023-04-21T10:18:23.568Z,20.20
2023-04-21T10:22:45.666Z,20.40
2023-04-21T10:27:12.200Z,20.70
2023-04-21T10:31:35.112Z,21.10
2023-04-21T10:36:02.950Z,23.30
2023-04-21T10:40:43.082Z,23.20
2023-04-21T10:45:09.458Z,24.10
2023-04-21T10:49:31.582Z,22.90
2023-04-21T10:53:53.807Z,24.50
2023-04-21T10:58:16.835Z,21.90
2023-04-21T11:02:41.219Z,24.50
2023-04-21T11:07:14.424Z,26.40
2023-04-21T11:11:37.347Z,25.00
2023-04-21T11:16:07.328Z,24.60
2023-04-21T11:20:31.933Z,25.70
2023-04-21T11:24:56.340Z,25.30
2023-04-21T11:29:18.706Z,24.00
2023-04-21T11:33:40.841Z,22.00
2023-04-21T11:38:06.644Z,21.00
2023-04-21T11:42:29.321Z,19.80
2023-04-21T11:46:51.588Z,19.30
2023-04-21T11:51:21.364Z,19.10
2023-04-21T11:55:46.225Z,18.90
2023-04-21T12:00:12.126Z,19.00
2023-04-21T12:04:34.827Z,19.10
2023-04-21T12:09:03.539Z,19.30
2023-04-21T12:13:27.986Z,19.40
2023-04-21T12:17:53.033Z,19.00
2023-04-21T12:22:23.162Z,19.20
2023-04-21T12:26:45.177Z,19.80
2023-04-21T12:31:07.604Z,20.10
2023-04-21T12:35:29.527Z,19.70
2023-04-21T12:39:51.768Z,19.40
2023-04-21T12:44:14.951Z,19.20
2023-04-21T12:48:37.127Z,19.20
2023-04-21T12:52:59.763Z,18.70
2023-04-21T12:57:22.018Z,18.90
2023-04-21T13:01:44.257Z,19.40
2023-04-21T13:06:06.948Z,19.00
2023-04-21T13:10:29.563Z,18.50
2023-04-21T13:14:51.520Z,18.40
2023-04-21T13:19:13.259Z,18.20
2023-04-21T13:23:35.434Z,18.40
2023-04-21T13:27:58.406Z,18.80
2023-04-21T13:32:22.803Z,18.80
2023-04-21T13:36:45.427Z,18.90
2023-04-21T13:41:08.131Z,18.90
2023-04-21T13:45:30.388Z,19.10
2023-04-21T13:49:52.593Z,19.30
2023-04-21T13:54:14.745Z,18.90
2023-04-21T13:58:36.631Z,18.90
2023-04-21T14:02:58.853Z,19.20
2023-04-21T14:07:23.490Z,19.10
2023-04-21T14:11:47.766Z,18.80
2023-04-21T14:16:09.901Z,18.60
2023-04-21T14:20:32.073Z,18.70
2023-04-21T14:24:54.448Z,18.70
2023-04-21T14:29:16.380Z,18.80
2023-04-21T14:33:38.942Z,18.40
2023-04-21T14:38:01.667Z,18.30
2023-04-21T14:42:23.646Z,18.40
2023-04-21T14:46:53.712Z,18.50
2023-04-21T14:51:28.402Z,18.70
2023-04-21T14:55:51.870Z,18.50
2023-04-21T15:00:15.621Z,18.50
2023-04-21T15:04:37.846Z,18.40
2023-04-21T15:09:00.226Z,18.50
2023-04-21T15:13:22.338Z,18.80
2023-04-21T15:17:44.687Z,18.80
2023-04-21T15:22:06.866Z,18.90
2023-04-21T15:26:30.562Z,19.00
2023-04-21T15:30:52.944Z,19.10
2023-04-21T15:35:15.244Z,19.10
2023-04-21T15:39:37.306Z,18.80
2023-04-21T15:44:00.841Z,18.50
2023-04-21T15:48:23.662Z,18.20
2023-04-21T15:52:45.985Z,17.90
2023-04-21T15:57:08.231Z,17.70
2023-04-21T16:01:30.530Z,17.50
2023-04-21T16:05:53.154Z,17.50
2023-04-21T16:10:15.247Z,17.60
2023-04-21T16:14:53.594Z,17.70
2023-04-21T16:19:17.796Z,17.80
2023-04-21T16:23:40.513Z,17.80
2023-04-21T16:28:02.739Z,17.80
2023-04-21T16:32:25.113Z,17.70
2023-04-21T16:36:47.597Z,17.70
2023-04-21T16:41:10.142Z,17.70
2023-04-21T16:45:32.703Z,17.60
2023-04-21T16:49:54.983Z,17.50
2023-04-21T16:54:16.926Z,17.40
2023-04-21T16:58:39.654Z,17.40
2023-04-21T17:03:01.615Z,17.30
2023-04-21T17:07:23.734Z,17.30
2023-04-21T17:11:46.141Z,17.20
2023-04-21T17:16:08.333Z,17.10
2023-04-21T17:20:30.936Z,17.10
2023-04-21T17:24:54.060Z,17.00
2023-04-21T17:29:16.235Z,16.90
2023-04-21T17:33:38.296Z,16.70
2023-04-21T17:38:00.849Z,16.60
2023-04-21T17:42:22.969Z,16.50
2023-04-21T17:46:45.028Z,16.40
2023-04-21T17:51:07.418Z,16.20
2023-04-21T17:55:29.700Z,16.00
2023-04-21T17:59:51.884Z,15.80
2023-04-21T18:04:15.787Z,15.60
2023-04-21T18:08:38.672Z,15.50
2023-04-21T18:13:00.991Z,15.40
2023-04-21T18:17:23.503Z,15.10
2023-04-21T18:21:46.099Z,14.90
2023-04-21T18:26:08.631Z,14.60
2023-04-21T18:30:31.033Z,14.40
2023-04-21T18:34:53.063Z,14.20
2023-04-21T18:39:15.260Z,14.00
2023-04-21T18:43:37.744Z,13.90
2023-04-21T18:48:00.161Z,13.80
2023-04-21T18:52:23.489Z,13.70
2023-04-21T18:56:46.167Z,13.60
2023-04-21T19:01:08.227Z,13.50
2023-04-21T19:05:31.860Z,13.30
2023-04-21T19:09:54.025Z,13.10
2023-04-21T19:14:16.076Z,12.90
2023-04-21T19:18:38.172Z,12.80
2023-04-21T19:23:00.637Z,12.70
2023-04-21T19:27:23.521Z,12.70
2023-04-21T19:31:46.858Z,12.70
2023-04-21T19:36:09.734Z,12.70
2023-04-21T19:40:32.394Z,12.70
2023-04-21T19:44:54.622Z,12.70
2023-04-21T19:49:17.161Z,12.60
2023-04-21T19:53:39.199Z,12.60
2023-04-21T19:58:01.176Z,12.50
2023-04-21T20:02:23.579Z,12.50
2023-04-21T20:06:46.001Z,12.50
2023-04-21T20:11:08.755Z,12.40
2023-04-21T20:15:30.879Z,12.40
2023-04-21T20:19:54.150Z,12.30
2023-04-21T20:24:16.337Z,12.10
2023-04-21T20:28:38.595Z,12.00
2023-04-21T20:33:00.770Z,11.90
2023-04-21T20:37:23.444Z,11.80
2023-04-21T20:41:45.908Z,11.70
2023-04-21T20:46:09.019Z,11.60
2023-04-21T20:50:31.179Z,11.40
2023-04-21T20:54:53.380Z,11.10
2023-04-21T20:59:15.276Z,10.80
2023-04-21T21:03:37.564Z,10.50
2023-04-21T21:08:00.312Z,10.30
2023-04-21T21:12:22.681Z,10.10
2023-04-21T21:16:45.067Z,9.90
2023-04-21T21:21:07.307Z,9.80
2023-04-21T21:25:29.278Z,9.60
2023-04-21T21:29:51.484Z,9.40
2023-04-21T21:34:13.338Z,9.40
2023-04-21T21:38:35.708Z,9.40
2023-04-21T21:42:57.663Z,9.30
2023-04-21T21:47:19.937Z,9.10
2023-04-21T21:51:42.436Z,8.90
2023-04-21T21:56:05.326Z,8.80
2023-04-21T22:00:27.543Z,8.90
2023-04-21T22:04:49.739Z,8.90
2023-04-21T22:09:12.217Z,8.90
2023-04-21T22:13:34.099Z,8.90
2023-04-21T22:17:56.285Z,8.80
2023-04-21T22:22:18.489Z,8.80
2023-04-21T22:26:40.935Z,8.80
2023-04-21T22:31:02.901Z,8.70
2023-04-21T22:35:27.617Z,8.80
2023-04-21T22:39:52.423Z,9.00
2023-04-21T22:44:14.720Z,9.20
2023-04-21T22:48:38.394Z,9.20
2023-04-21T22:53:00.517Z,9.20
2023-04-21T22:57:22.667Z,9.10
2023-04-21T23:01:44.663Z,9.10
2023-04-21T23:06:07.079Z,9.00
2023-04-21T23:10:30.711Z,8.80
2023-04-21T23:14:53.061Z,8.60
2023-04-21T23:19:15.037Z,8.40
2023-04-21T23:23:37.218Z,8.30
2023-04-21T23:27:59.198Z,8.30
2023-04-21T23:32:21.483Z,8.40
2023-04-21T23:36:43.476Z,8.20
2023-04-21T23:41:05.627Z,8.10
2023-04-21T23:45:27.724Z,8.00
2023-04-21T23:49:49.956Z,7.90
2023-04-21T23:54:12.079Z,7.80
2023-04-21T23:58:33.896Z,7.70
